createdAt,value
2023-02-11T00:01:18.821Z,12.77
2023-02-11T00:03:46.521Z,13.10
2023-02-11T00:06:14.146Z,13.80
2023-02-11T00:08:41.804Z,15.82
2023-02-11T00:11:13.763Z,18.03
2023-02-11T00:13:42.211Z,11.27
2023-02-11T00:16:19.107Z,14.73
2023-02-11T00:18:47.204Z,15.50
2023-02-11T00:21:17.543Z,13.98
2023-02-11T00:23:46.185Z,12.50
2023-02-11T00:26:25.303Z,12.93
2023-02-11T00:28:53.530Z,11.02
2023-02-11T00:31:22.942Z,11.85
2023-02-11T00:33:50.894Z,16.48
2023-02-11T00:36:21.579Z,14.43
2023-02-11T00:38:51.192Z,15.13
2023-02-11T00:41:20.060Z,11.10
2023-02-11T00:43:48.650Z,12.43
2023-02-11T00:46:17.193Z,13.00
2023-02-11T00:48:44.951Z,9.43
2023-02-11T00:51:13.232Z,14.25
2023-02-11T00:53:42.532Z,20.02
2023-02-11T00:56:10.652Z,14.60
2023-02-11T00:58:38.415Z,15.07
2023-02-11T01:01:06.484Z,15.40
2023-02-11T01:03:36.369Z,11.00
2023-02-11T01:06:04.957Z,10.98
2023-02-11T01:08:32.594Z,14.52
2023-02-11T01:11:03.792Z,19.65
2023-02-11T01:13:33.723Z,14.63
2023-02-11T01:16:01.930Z,16.42
2023-02-11T01:18:29.565Z,11.60
2023-02-11T01:20:57.184Z,16.67
2023-02-11T01:23:24.852Z,16.10
2023-02-11T01:25:53.206Z,17.67
2023-02-11T01:28:23.935Z,10.48
2023-02-11T01:34:02.794Z,12.20
2023-02-11T01:36:30.440Z,10.70
2023-02-11T01:38:57.939Z,10.20
2023-02-11T01:41:25.672Z,11.30
2023-02-11T01:43:53.199Z,9.68
2023-02-11T01:46:33.399Z,11.23
2023-02-11T01:49:08.666Z,14.05
2023-02-11T01:51:44.146Z,11.90
2023-02-11T01:54:35.771Z,9.82
2023-02-11T01:57:25.254Z,8.85
2023-02-11T02:00:24.663Z,11.27
2023-02-11T02:03:03.316Z,7.00
2023-02-11T02:05:51.378Z,10.50
2023-02-11T02:08:35.501Z,11.27
2023-02-11T02:11:03.842Z,9.10
2023-02-11T02:13:34.097Z,7.90
2023-02-11T02:16:09.667Z,9.82
2023-02-11T02:19:01.095Z,6.50
2023-02-11T02:22:01.020Z,6.90
2023-02-11T02:24:46.629Z,6.93
2023-02-11T02:27:40.364Z,6.15
2023-02-11T02:30:13.740Z,7.03
2023-02-11T02:33:22.359Z,8.80
2023-02-11T02:36:02.969Z,6.57
2023-02-11T02:38:36.661Z,5.43
2023-02-11T02:41:17.425Z,5.35
2023-02-11T02:43:48.569Z,8.82
2023-02-11T02:46:23.379Z,3.33
2023-02-11T02:48:55.770Z,4.60
2023-02-11T02:51:32.202Z,5.18
2023-02-11T02:54:18.574Z,4.95
2023-02-11T02:57:10.332Z,6.30
2023-02-11T02:59:58.328Z,4.10
2023-02-11T03:02:48.021Z,3.78
2023-02-11T03:05:26.057Z,3.28
2023-02-11T03:08:09.988Z,1.52
2023-02-11T03:10:43.372Z,2.10
2023-02-11T03:13:13.032Z,4.43
2023-02-11T03:15:47.919Z,2.35
2023-02-11T03:18:18.934Z,5.00
2023-02-11T03:20:50.777Z,4.45
2023-02-11T03:23:28.930Z,6.70
2023-02-11T03:26:02.972Z,3.83
2023-02-11T03:28:49.341Z,2.95
2023-02-11T03:31:25.722Z,3.80
2023-02-11T03:34:27.690Z,2.67
2023-02-11T03:37:19.176Z,3.28
2023-02-11T03:40:19.394Z,4.57
2023-02-11T03:42:53.735Z,2.90
2023-02-11T03:45:24.490Z,3.22
2023-02-11T03:48:04.531Z,2.28
2023-02-11T03:50:33.884Z,1.30
2023-02-11T03:53:02.933Z,2.83
2023-02-11T03:55:33.760Z,1.05
2023-02-11T03:58:01.578Z,2.35
2023-02-11T04:00:34.532Z,2.58
2023-02-11T04:03:02.881Z,1.92
2023-02-11T04:05:30.637Z,4.17
2023-02-11T04:07:58.638Z,2.45
2023-02-11T04:10:26.587Z,2.40
2023-02-11T04:12:54.147Z,3.03
2023-02-11T04:15:24.178Z,2.60
2023-02-11T04:17:52.456Z,5.73
2023-02-11T04:20:20.085Z,2.17
2023-02-11T04:22:47.704Z,2.85
2023-02-11T04:25:15.324Z,2.97
2023-02-11T04:27:42.982Z,6.75
2023-02-11T04:30:11.356Z,4.27
2023-02-11T04:32:38.992Z,6.90
2023-02-11T04:35:06.946Z,5.13
2023-02-11T04:37:35.317Z,4.20
2023-02-11T04:40:02.957Z,6.00
2023-02-11T04:42:30.641Z,8.73
2023-02-11T04:44:58.215Z,3.38
2023-02-11T04:47:25.873Z,5.72
2023-02-11T04:49:53.435Z,6.07
2023-02-11T04:52:21.038Z,6.97
2023-02-11T04:54:48.564Z,6.50
2023-02-11T04:57:16.154Z,5.65
2023-02-11T04:59:43.713Z,5.82
2023-02-11T05:02:11.386Z,4.47
2023-02-11T05:04:38.970Z,3.53
2023-02-11T05:07:06.787Z,5.23
2023-02-11T05:09:34.343Z,3.60
2023-02-11T05:12:01.946Z,4.38
2023-02-11T05:14:29.516Z,4.45
2023-02-11T05:16:57.135Z,3.30
2023-02-11T05:22:28.750Z,1.67
2023-02-11T05:24:56.329Z,4.13
2023-02-11T05:27:23.874Z,1.77
2023-02-11T05:29:51.437Z,3.50
2023-02-11T05:32:19.046Z,1.87
2023-02-11T05:34:46.657Z,2.53
2023-02-11T05:37:14.293Z,2.83
2023-02-11T05:39:41.974Z,1.45
2023-02-11T05:42:09.558Z,1.63
2023-02-11T05:44:37.185Z,1.97
2023-02-11T05:47:05.043Z,2.42
2023-02-11T05:49:32.670Z,1.30
2023-02-11T05:52:00.294Z,1.55
2023-02-11T05:54:27.824Z,2.92
2023-02-11T05:56:55.386Z,1.40
2023-02-11T05:59:22.991Z,2.00
2023-02-11T06:01:50.528Z,2.08
2023-02-11T06:04:18.165Z,1.75
2023-02-11T06:06:45.831Z,0.85
2023-02-11T06:09:13.424Z,1.90
2023-02-11T06:11:40.944Z,1.80
2023-02-11T06:14:08.918Z,2.75
2023-02-11T06:16:36.939Z,0.98
2023-02-11T06:19:04.632Z,4.43
2023-02-11T06:21:43.301Z,1.17
2023-02-11T06:24:12.771Z,0.77
2023-02-11T06:26:40.647Z,4.82
2023-02-11T06:29:08.417Z,3.65
2023-02-11T06:31:38.198Z,1.45
2023-02-11T06:34:06.354Z,2.70
2023-02-11T06:36:34.108Z,3.50
2023-02-11T06:39:01.897Z,3.65
2023-02-11T06:41:29.657Z,2.03
2023-02-11T06:43:57.256Z,3.85
2023-02-11T06:46:24.928Z,4.07
2023-02-11T06:48:52.713Z,4.10
2023-02-11T06:51:20.256Z,3.88
2023-02-11T06:53:48.254Z,5.97
2023-02-11T06:56:19.248Z,4.70
2023-02-11T06:58:47.790Z,4.00
2023-02-11T07:01:16.538Z,8.65
2023-02-11T07:03:46.322Z,11.20
2023-02-11T07:06:16.876Z,17.73
2023-02-11T07:08:46.033Z,6.38
2023-02-11T07:11:19.347Z,4.50
2023-02-11T07:13:48.256Z,5.32
2023-02-11T07:16:18.735Z,11.45
2023-02-11T07:18:48.623Z,15.07
2023-02-11T07:21:19.592Z,19.48
2023-02-11T07:23:48.752Z,15.07
2023-02-11T07:26:19.583Z,9.80
2023-02-11T07:28:47.151Z,10.90
2023-02-11T07:31:15.967Z,4.00
2023-02-11T07:33:45.953Z,3.88
2023-02-11T07:36:15.717Z,5.27
2023-02-11T07:38:43.962Z,10.07
2023-02-11T07:41:15.120Z,13.18
2023-02-11T07:43:43.601Z,7.25
2023-02-11T07:46:13.935Z,6.47
2023-02-11T07:48:41.634Z,5.13
2023-02-11T07:51:10.807Z,4.40
2023-02-11T07:53:38.626Z,3.30
2023-02-11T07:56:07.522Z,1.88
2023-02-11T07:58:35.351Z,2.63
2023-02-11T08:01:08.229Z,3.73
2023-02-11T08:03:37.041Z,1.30
2023-02-11T08:06:13.758Z,3.90
2023-02-11T08:08:42.136Z,7.72
2023-02-11T08:11:14.634Z,14.15
2023-02-11T08:13:42.874Z,8.57
2023-02-11T08:16:17.369Z,3.45
2023-02-11T08:18:44.969Z,13.25
2023-02-11T08:21:12.562Z,14.68
2023-02-11T08:23:43.075Z,30.27
2023-02-11T08:26:14.277Z,20.37
2023-02-11T08:28:43.826Z,23.85
2023-02-11T08:31:17.159Z,27.35
2023-02-11T08:33:45.506Z,29.40
2023-02-11T08:36:16.808Z,26.25
2023-02-11T08:38:45.201Z,37.07
2023-02-11T08:41:15.019Z,17.17
2023-02-11T08:43:44.321Z,23.58
2023-02-11T08:46:14.952Z,27.40
2023-02-11T08:48:43.015Z,16.73
2023-02-11T08:51:14.834Z,21.93
2023-02-11T08:53:42.859Z,19.50
2023-02-11T08:56:13.392Z,19.95
2023-02-11T08:58:42.724Z,14.65
2023-02-11T09:01:12.394Z,13.80
2023-02-11T09:03:40.450Z,6.00
2023-02-11T09:06:10.947Z,9.05
2023-02-11T09:08:40.804Z,15.40
2023-02-11T09:11:10.302Z,14.05
2023-02-11T09:13:38.052Z,18.30
2023-02-11T09:16:05.975Z,20.77
2023-02-11T09:18:34.120Z,19.77
2023-02-11T09:21:09.261Z,11.05
2023-02-11T09:23:37.035Z,11.55
2023-02-11T09:26:09.840Z,10.30
2023-02-11T09:28:37.944Z,7.37
2023-02-11T09:31:07.840Z,5.90
2023-02-11T09:33:36.655Z,11.45
2023-02-11T09:36:05.970Z,10.13
2023-02-11T09:38:34.038Z,4.95
2023-02-11T09:41:04.123Z,22.60
2023-02-11T09:43:44.265Z,6.68
2023-02-11T09:46:17.461Z,6.68
2023-02-11T09:48:48.305Z,1.75
2023-02-11T09:51:57.580Z,4.95
2023-02-11T09:54:39.232Z,9.30
2023-02-11T09:57:22.855Z,12.90
2023-02-11T09:59:54.356Z,6.43
2023-02-11T10:02:45.072Z,16.35
2023-02-11T10:05:34.431Z,23.85
2023-02-11T10:08:30.031Z,17.63
2023-02-11T10:11:02.947Z,15.15
2023-02-11T10:13:33.821Z,9.75
2023-02-11T10:16:24.329Z,14.23
2023-02-11T10:19:30.245Z,19.23
2023-02-11T10:22:10.230Z,20.67
2023-02-11T10:24:39.362Z,13.68
2023-02-11T10:27:19.703Z,6.03
2023-02-11T10:29:56.951Z,11.80
2023-02-11T10:32:58.916Z,11.55
2023-02-11T10:35:28.043Z,12.40
2023-02-11T10:37:56.282Z,8.35
2023-02-11T10:40:29.768Z,8.07
2023-02-11T10:43:04.733Z,9.48
2023-02-11T10:45:46.099Z,10.30
2023-02-11T10:48:37.604Z,12.10
2023-02-11T10:51:12.833Z,13.63
2023-02-11T10:53:42.823Z,17.65
2023-02-11T10:56:31.188Z,14.93
2023-02-11T10:59:01.972Z,11.00
2023-02-11T11:01:53.563Z,4.57
2023-02-11T11:04:34.136Z,7.55
2023-02-11T11:07:10.963Z,9.05
2023-02-11T11:09:52.436Z,11.57
2023-02-11T11:12:46.101Z,11.32
2023-02-11T11:15:21.865Z,20.27
2023-02-11T11:18:20.958Z,17.80
2023-02-11T11:21:01.336Z,12.68
2023-02-11T11:23:32.392Z,12.57
2023-02-11T11:26:03.622Z,14.43
2023-02-11T11:28:38.963Z,21.37
2023-02-11T11:31:15.214Z,38.78
2023-02-11T11:33:47.598Z,9.60
2023-02-11T11:36:21.127Z,8.35
2023-02-11T11:42:23.976Z,9.13
2023-02-11T11:45:04.744Z,7.30
2023-02-11T11:47:40.070Z,20.90
2023-02-11T11:50:45.215Z,17.08
2023-02-11T11:53:23.302Z,12.82
2023-02-11T11:56:01.608Z,12.07
2023-02-11T11:58:31.048Z,9.18
2023-02-11T12:01:01.653Z,4.90
2023-02-11T12:03:42.343Z,5.28
2023-02-11T12:06:18.911Z,4.90
2023-02-11T12:08:55.629Z,5.60
2023-02-11T12:11:23.154Z,19.25
2023-02-11T12:14:22.213Z,26.65
2023-02-11T12:17:11.769Z,29.10
2023-02-11T12:19:45.270Z,10.75
2023-02-11T12:22:42.020Z,21.30
2023-02-11T12:26:01.060Z,16.25
2023-02-11T12:28:43.633Z,16.40
2023-02-11T12:31:17.231Z,7.00
2023-02-11T12:34:06.596Z,7.03
2023-02-11T12:36:46.940Z,8.97
2023-02-11T12:39:39.429Z,4.18
2023-02-11T12:42:47.002Z,4.35
2023-02-11T12:45:55.561Z,4.05
2023-02-11T12:49:01.092Z,3.72
2023-02-11T12:51:46.565Z,11.10
2023-02-11T12:54:44.897Z,4.43
2023-02-11T12:57:21.474Z,26.25
2023-02-11T12:59:56.592Z,13.48
2023-02-11T13:02:45.749Z,9.88
2023-02-11T13:05:31.890Z,12.20
2023-02-11T13:08:22.591Z,6.95
2023-02-11T13:10:58.027Z,5.88
2023-02-11T13:13:31.700Z,8.50
2023-02-11T13:16:09.384Z,8.50
2023-02-11T13:19:00.609Z,7.07
2023-02-11T13:21:41.612Z,5.10
2023-02-11T13:24:21.220Z,4.32
2023-02-11T13:27:01.773Z,5.57
2023-02-11T13:29:36.619Z,8.50
2023-02-11T13:32:11.919Z,4.17
2023-02-11T13:34:42.442Z,4.63
2023-02-11T13:37:37.442Z,2.08
2023-02-11T13:40:06.949Z,8.07
2023-02-11T13:42:49.824Z,3.88
2023-02-11T13:45:44.826Z,5.20
2023-02-11T13:48:22.447Z,8.02
2023-02-11T13:50:53.670Z,5.28
2023-02-11T13:53:22.339Z,6.57
2023-02-11T13:56:05.192Z,4.10
2023-02-11T13:58:32.738Z,8.87
2023-02-11T14:01:00.302Z,6.78
2023-02-11T14:03:50.528Z,4.05
2023-02-11T14:06:46.276Z,10.20
2023-02-11T14:09:13.816Z,4.57
2023-02-11T14:11:41.773Z,5.33
2023-02-11T14:14:24.021Z,6.00
2023-02-11T14:17:04.717Z,8.57
2023-02-11T14:19:35.377Z,7.47
2023-02-11T14:22:05.959Z,7.57
2023-02-11T14:24:33.523Z,4.47
2023-02-11T14:27:03.946Z,6.47
2023-02-11T14:29:37.591Z,4.95
2023-02-11T14:32:27.118Z,5.85
2023-02-11T14:35:30.815Z,6.22
2023-02-11T14:38:21.956Z,3.87
2023-02-11T14:40:49.830Z,3.42
2023-02-11T14:43:23.062Z,7.30
2023-02-11T14:45:56.004Z,6.40
2023-02-11T14:48:32.349Z,4.78
2023-02-11T14:51:13.688Z,8.50
2023-02-11T14:53:46.901Z,4.88
2023-02-11T14:56:24.749Z,4.35
2023-02-11T14:58:54.067Z,4.32
2023-02-11T15:01:36.093Z,3.22
2023-02-11T15:04:06.633Z,6.33
2023-02-11T15:06:38.336Z,8.32
2023-02-11T15:09:26.965Z,6.22
2023-02-11T15:11:57.417Z,4.53
2023-02-11T15:14:28.632Z,5.70
2023-02-11T15:17:00.427Z,5.33
2023-02-11T15:19:36.062Z,9.70
2023-02-11T15:22:26.076Z,5.07
2023-02-11T15:25:01.500Z,8.90
2023-02-11T15:27:38.715Z,9.10
2023-02-11T15:30:23.306Z,5.27
2023-02-11T15:32:58.832Z,11.32
2023-02-11T15:35:38.195Z,8.27
2023-02-11T15:38:06.143Z,7.65
2023-02-11T15:40:36.233Z,6.22
2023-02-11T15:43:07.106Z,5.57
2023-02-11T15:45:53.654Z,4.68
2023-02-11T15:48:46.594Z,8.68
2023-02-11T15:51:35.119Z,17.30
2023-02-11T15:54:06.592Z,8.25
2023-02-11T15:56:43.438Z,10.67
2023-02-11T15:59:27.441Z,8.07
2023-02-11T16:01:55.566Z,6.88
2023-02-11T16:04:28.053Z,5.75
2023-02-11T16:06:56.195Z,5.38
2023-02-11T16:09:43.074Z,7.00
2023-02-11T16:12:37.071Z,4.07
2023-02-11T16:15:31.042Z,6.28
2023-02-11T16:17:59.007Z,10.77
2023-02-11T16:20:26.799Z,5.35
2023-02-11T16:22:54.802Z,7.07
2023-02-11T16:25:23.640Z,6.57
2023-02-11T16:27:54.749Z,8.07
2023-02-11T16:30:40.627Z,7.32
2023-02-11T16:33:11.072Z,6.85
2023-02-11T16:35:38.857Z,7.97
2023-02-11T16:38:06.475Z,6.47
2023-02-11T16:40:34.139Z,6.93
2023-02-11T16:43:01.743Z,6.40
2023-02-11T16:45:29.681Z,5.13
2023-02-11T16:48:00.766Z,6.50
2023-02-11T16:50:29.448Z,7.25
2023-02-11T16:53:02.188Z,10.23
2023-02-11T16:55:29.927Z,6.80
2023-02-11T16:57:57.823Z,11.40
2023-02-11T17:00:25.438Z,5.80
2023-02-11T17:02:53.234Z,6.13
2023-02-11T17:05:25.220Z,9.60
2023-02-11T17:07:53.126Z,9.00
2023-02-11T17:10:23.108Z,7.05
2023-02-11T17:12:51.626Z,9.57
2023-02-11T17:15:19.356Z,8.38
2023-02-11T17:17:47.077Z,7.40
2023-02-11T17:20:15.510Z,7.88
2023-02-11T17:22:43.228Z,7.32
2023-02-11T17:25:11.366Z,10.13
2023-02-11T17:27:39.154Z,9.73
2023-02-11T17:30:07.822Z,8.90
2023-02-11T17:32:36.772Z,10.35
2023-02-11T17:35:06.998Z,11.50
2023-02-11T17:37:34.616Z,10.47
2023-02-11T17:40:02.393Z,9.50
2023-02-11T17:42:31.351Z,10.73
2023-02-11T17:45:00.110Z,13.65
2023-02-11T17:47:27.728Z,11.48
2023-02-11T17:49:55.552Z,10.30
2023-02-11T17:52:24.419Z,10.75
2023-02-11T17:54:52.048Z,16.92
2023-02-11T17:57:19.669Z,9.35
2023-02-11T17:59:47.426Z,11.75
2023-02-11T18:02:15.141Z,11.93
2023-02-11T18:04:42.915Z,13.15
2023-02-11T18:07:10.608Z,14.00
2023-02-11T18:09:39.799Z,9.40
2023-02-11T18:12:08.530Z,10.10
2023-02-11T18:14:40.484Z,13.03
2023-02-11T18:17:08.498Z,10.32
2023-02-11T18:19:37.677Z,13.38
2023-02-11T18:22:05.421Z,10.57
2023-02-11T18:24:33.168Z,10.13
2023-02-11T18:27:00.860Z,11.57
2023-02-11T18:29:28.493Z,13.77
2023-02-11T18:31:57.158Z,13.65
2023-02-11T18:34:25.702Z,9.30
2023-02-11T18:36:53.363Z,11.80
2023-02-11T18:39:24.279Z,11.73
2023-02-11T18:41:54.753Z,9.70
2023-02-11T18:44:24.849Z,11.80
2023-02-11T18:46:53.156Z,14.48
2023-02-11T18:49:20.843Z,15.50
2023-02-11T18:51:48.650Z,15.97
2023-02-11T18:54:16.342Z,13.30
2023-02-11T18:56:43.994Z,12.30
2023-02-11T18:59:11.592Z,9.15
2023-02-11T19:01:43.319Z,13.98
2023-02-11T19:04:11.552Z,14.10
2023-02-11T19:06:39.288Z,14.15
2023-02-11T19:09:10.355Z,11.52
2023-02-11T19:11:53.976Z,11.15
2023-02-11T19:14:28.478Z,11.48
2023-02-11T19:16:58.619Z,11.97
2023-02-11T19:19:29.063Z,20.50
2023-02-11T19:21:59.468Z,9.68
2023-02-11T19:24:29.109Z,12.77
2023-02-11T19:26:59.688Z,9.98
2023-02-11T19:29:27.807Z,13.17
2023-02-11T19:31:55.704Z,11.77
2023-02-11T19:34:23.601Z,11.07
2023-02-11T19:36:51.192Z,10.30
2023-02-11T19:39:19.007Z,11.13
2023-02-11T19:41:46.754Z,12.53
2023-02-11T19:44:14.517Z,11.40
2023-02-11T19:46:42.367Z,12.15
2023-02-11T19:49:14.437Z,11.50
2023-02-11T19:51:41.993Z,14.95
2023-02-11T19:54:09.511Z,9.27
2023-02-11T19:56:38.532Z,8.20
2023-02-11T19:59:09.037Z,7.40
2023-02-11T20:01:37.281Z,9.48
2023-02-11T20:04:05.629Z,14.32
2023-02-11T20:06:34.333Z,11.67
2023-02-11T20:09:06.488Z,10.93
2023-02-11T20:11:35.281Z,9.82
2023-02-11T20:14:03.434Z,11.00
2023-02-11T20:16:46.872Z,12.40
2023-02-11T20:19:18.648Z,11.97
2023-02-11T20:21:48.549Z,9.30
2023-02-11T20:24:18.351Z,13.20
2023-02-11T20:26:48.626Z,10.85
2023-02-11T20:29:18.124Z,13.05
2023-02-11T20:31:46.216Z,10.47
2023-02-11T20:34:13.932Z,11.35
2023-02-11T20:36:41.672Z,10.15
2023-02-11T20:39:11.586Z,9.13
2023-02-11T20:41:40.115Z,10.02
2023-02-11T20:44:10.696Z,9.87
2023-02-11T20:46:41.914Z,9.98
2023-02-11T20:49:15.550Z,10.02
2023-02-11T20:51:43.491Z,11.90
2023-02-11T20:54:19.580Z,14.75
2023-02-11T20:56:48.612Z,11.37
2023-02-11T20:59:17.674Z,9.82
2023-02-11T21:01:48.480Z,12.23
2023-02-11T21:04:19.407Z,10.32
2023-02-11T21:06:50.057Z,12.05
2023-02-11T21:09:20.199Z,12.50
2023-02-11T21:11:50.108Z,13.68
2023-02-11T21:14:19.040Z,11.25
2023-02-11T21:16:48.350Z,13.57
2023-02-11T21:19:17.658Z,11.15
2023-02-11T21:21:45.526Z,14.60
2023-02-11T21:24:13.156Z,13.13
2023-02-11T21:26:40.791Z,11.30
2023-02-11T21:29:09.025Z,13.70
2023-02-11T21:31:37.098Z,13.98
2023-02-11T21:34:05.210Z,15.23
2023-02-11T21:36:33.311Z,15.27
2023-02-11T21:39:01.943Z,15.48
2023-02-11T21:41:29.580Z,15.88
2023-02-11T21:43:57.216Z,17.92
2023-02-11T21:46:24.941Z,9.87
2023-02-11T21:48:52.849Z,11.43
2023-02-11T21:51:23.539Z,11.60
2023-02-11T21:53:55.696Z,9.63
2023-02-11T21:56:23.692Z,7.82
2023-02-11T21:58:53.590Z,14.43
2023-02-11T22:01:24.738Z,9.10
2023-02-11T22:03:52.417Z,10.43
2023-02-11T22:06:31.001Z,12.20
2023-02-11T22:09:01.720Z,11.10
2023-02-11T22:11:29.307Z,11.23
2023-02-11T22:13:57.996Z,10.30
2023-02-11T22:16:27.453Z,9.85
2023-02-11T22:18:58.722Z,11.77
2023-02-11T22:21:26.819Z,10.38
2023-02-11T22:23:55.495Z,7.97
2023-02-11T22:26:25.169Z,10.13
2023-02-11T22:28:53.821Z,9.40
2023-02-11T22:31:24.736Z,7.10
2023-02-11T22:33:52.684Z,10.88
2023-02-11T22:36:23.284Z,10.90
2023-02-11T22:38:51.501Z,9.25
2023-02-11T22:41:19.808Z,10.77
2023-02-11T22:43:47.510Z,10.02
2023-02-11T22:46:17.902Z,8.80
2023-02-11T22:48:46.246Z,7.50
2023-02-11T22:51:16.635Z,11.32
2023-02-11T22:53:44.650Z,13.00
2023-02-11T22:56:15.574Z,11.52
2023-02-11T22:58:43.743Z,8.20
2023-02-11T23:01:12.840Z,11.07
2023-02-11T23:03:40.634Z,8.60
2023-02-11T23:06:09.514Z,11.43
2023-02-11T23:08:39.684Z,10.27
2023-02-11T23:11:10.140Z,8.00
2023-02-11T23:13:39.521Z,9.90
2023-02-11T23:16:09.927Z,7.80
2023-02-11T23:18:39.199Z,10.20
2023-02-11T23:21:29.310Z,11.65
2023-02-11T23:24:02.225Z,11.45
2023-02-11T23:26:30.678Z,9.93
2023-02-11T23:28:59.051Z,11.10
2023-02-11T23:31:37.602Z,12.90
2023-02-11T23:34:07.188Z,7.80
2023-02-11T23:36:34.870Z,12.15
2023-02-11T23:39:02.915Z,10.43
2023-02-11T23:41:30.605Z,11.98
2023-02-11T23:43:58.228Z,10.18
2023-02-11T23:46:27.334Z,9.85
2023-02-11T23:48:55.209Z,11.07
2023-02-11T23:51:23.557Z,11.37
2023-02-11T23:53:54.237Z,11.85
2023-02-11T23:56:26.212Z,10.80
2023-02-11T23:58:56.154Z,8.45
